createdAt,value
2018-09-29T00:00:18.606Z,17.20
2018-09-29T00:02:46.386Z,17.20
2018-09-29T00:05:14.237Z,17.20
2018-09-29T00:07:42.092Z,17.10
2018-09-29T00:10:09.947Z,17.10
2018-09-29T00:12:37.934Z,17.10
2018-09-29T00:15:06.084Z,17.10
2018-09-29T00:17:33.885Z,17.10
2018-09-29T00:20:02.494Z,17.20
2018-09-29T00:22:30.300Z,17.20
2018-09-29T00:24:58.653Z,17.20
2018-09-29T00:27:26.402Z,17.20
2018-09-29T00:29:54.201Z,17.20
2018-09-29T00:32:22.529Z,17.20
2018-09-29T00:34:50.525Z,17.10
2018-09-29T00:37:18.286Z,17.10
2018-09-29T00:39:46.049Z,17.10
2018-09-29T00:42:13.989Z,17.10
2018-09-29T00:44:41.900Z,17.20
2018-09-29T00:47:09.677Z,17.00
2018-09-29T00:49:37.469Z,17.00
2018-09-29T00:52:05.285Z,16.90
2018-09-29T00:54:33.061Z,17.00
2018-09-29T00:57:01.486Z,16.90
2018-09-29T00:59:29.353Z,16.90
2018-09-29T01:01:57.183Z,16.80
2018-09-29T01:04:25.032Z,16.80
2018-09-29T01:06:52.981Z,16.70
2018-09-29T01:09:20.878Z,16.70
2018-09-29T01:11:48.624Z,16.70
2018-09-29T01:14:16.437Z,16.60
2018-09-29T01:16:44.257Z,16.60
2018-09-29T01:19:12.053Z,16.60
2018-09-29T01:21:39.850Z,16.50
2018-09-29T01:24:07.658Z,16.50
2018-09-29T01:26:35.433Z,16.40
2018-09-29T01:29:03.212Z,16.30
2018-09-29T01:31:30.993Z,16.40
2018-09-29T01:33:58.749Z,16.30
2018-09-29T01:36:26.554Z,16.20
2018-09-29T01:38:54.325Z,16.30
2018-09-29T01:41:22.252Z,16.20
2018-09-29T01:43:50.053Z,16.20
2018-09-29T01:46:17.833Z,16.10
2018-09-29T01:48:45.585Z,16.10
2018-09-29T01:51:13.349Z,16.00
2018-09-29T01:53:41.153Z,16.10
2018-09-29T01:56:08.980Z,16.00
2018-09-29T01:58:36.786Z,16.00
2018-09-29T02:01:04.573Z,16.00
2018-09-29T02:03:32.355Z,16.00
2018-09-29T02:06:00.101Z,16.00
2018-09-29T02:08:27.873Z,16.00
2018-09-29T02:10:55.752Z,16.00
2018-09-29T02:13:23.660Z,16.00
2018-09-29T02:15:51.470Z,15.90
2018-09-29T02:18:19.241Z,15.90
2018-09-29T02:20:47.017Z,15.90
2018-09-29T02:23:14.812Z,15.80
2018-09-29T02:25:42.685Z,15.90
2018-09-29T02:28:10.502Z,15.80
2018-09-29T02:30:38.250Z,15.80
2018-09-29T02:33:06.022Z,16.00
2018-09-29T02:35:33.777Z,16.00
2018-09-29T02:38:01.539Z,15.90
2018-09-29T02:40:29.356Z,15.80
2018-09-29T02:42:57.139Z,15.70
2018-09-29T02:45:24.918Z,15.60
2018-09-29T02:47:52.757Z,15.50
2018-09-29T02:50:20.559Z,15.50
2018-09-29T02:52:48.351Z,15.40
2018-09-29T02:55:16.134Z,15.40
2018-09-29T02:57:43.976Z,15.40
2018-09-29T03:00:11.745Z,15.30
2018-09-29T03:02:39.522Z,15.30
2018-09-29T03:05:07.552Z,15.30
2018-09-29T03:07:35.400Z,15.20
2018-09-29T03:10:03.253Z,15.20
2018-09-29T03:12:30.999Z,15.10
2018-09-29T03:14:58.809Z,15.00
2018-09-29T03:17:27.149Z,15.00
2018-09-29T03:19:54.962Z,14.90
2018-09-29T03:22:22.727Z,15.00
2018-09-29T03:24:50.873Z,14.90
2018-09-29T03:27:18.702Z,14.80
2018-09-29T03:29:46.446Z,14.70
2018-09-29T03:32:14.204Z,14.70
2018-09-29T03:34:42.088Z,14.60
2018-09-29T03:37:09.929Z,14.60
2018-09-29T03:39:37.942Z,14.60
2018-09-29T03:42:05.856Z,14.50
2018-09-29T03:44:33.648Z,14.40
2018-09-29T03:47:01.426Z,14.40
2018-09-29T03:49:29.225Z,14.30
2018-09-29T03:51:56.985Z,14.20
2018-09-29T03:54:24.795Z,14.20
2018-09-29T03:56:52.562Z,14.10
2018-09-29T03:59:20.316Z,14.10
2018-09-29T04:01:48.100Z,14.10
2018-09-29T04:04:15.869Z,14.00
2018-09-29T04:06:43.674Z,14.00
2018-09-29T04:09:11.436Z,13.90
2018-09-29T04:11:39.285Z,13.90
2018-09-29T04:14:07.511Z,13.90
2018-09-29T04:16:35.286Z,13.80
2018-09-29T04:19:03.101Z,13.90
2018-09-29T04:21:40.019Z,13.70
2018-09-29T04:24:08.109Z,13.70
2018-09-29T04:26:35.869Z,13.60
2018-09-29T04:29:03.921Z,13.60
2018-09-29T04:31:32.319Z,13.50
2018-09-29T04:34:00.684Z,13.50
2018-09-29T04:36:28.457Z,13.50
2018-09-29T04:38:56.425Z,13.40
2018-09-29T04:41:24.444Z,13.40
2018-09-29T04:43:52.569Z,13.30
2018-09-29T04:46:20.564Z,13.30
2018-09-29T04:48:48.717Z,13.30
2018-09-29T04:51:16.791Z,13.20
2018-09-29T04:53:44.772Z,13.20
2018-09-29T04:56:12.704Z,13.10
2018-09-29T04:58:40.709Z,13.10
2018-09-29T05:01:08.869Z,13.00
2018-09-29T05:03:36.750Z,13.00
2018-09-29T05:06:04.632Z,13.10
2018-09-29T05:08:32.582Z,13.00
2018-09-29T05:11:00.537Z,13.00
2018-09-29T05:13:28.505Z,13.00
2018-09-29T05:15:56.473Z,13.00
2018-09-29T05:18:24.392Z,12.90
2018-09-29T05:20:52.740Z,12.90
2018-09-29T05:23:20.630Z,12.90
2018-09-29T05:25:49.275Z,12.80
2018-09-29T05:28:17.299Z,12.80
2018-09-29T05:30:45.136Z,12.80
2018-09-29T05:33:13.094Z,12.80
2018-09-29T05:35:41.202Z,12.80
2018-09-29T05:38:09.186Z,13.00
2018-09-29T05:40:37.078Z,12.80
2018-09-29T05:43:05.160Z,12.80
2018-09-29T05:45:33.533Z,12.90
2018-09-29T05:48:01.493Z,12.90
2018-09-29T05:50:29.296Z,12.80
2018-09-29T05:52:57.129Z,12.90
2018-09-29T05:55:24.949Z,12.90
2018-09-29T05:57:52.736Z,12.90
2018-09-29T06:00:20.585Z,12.90
2018-09-29T06:02:48.316Z,13.00
2018-09-29T06:05:16.141Z,13.00
2018-09-29T06:07:43.972Z,13.10
2018-09-29T06:10:12.393Z,13.10
2018-09-29T06:12:40.836Z,13.30
2018-09-29T06:15:18.834Z,13.30
2018-09-29T06:17:46.685Z,13.50
2018-09-29T06:20:15.385Z,13.70
2018-09-29T06:22:48.736Z,13.70
2018-09-29T06:25:16.605Z,14.10
2018-09-29T06:27:44.525Z,14.30
2018-09-29T06:30:12.469Z,14.50
2018-09-29T06:32:40.408Z,14.60
2018-09-29T06:35:08.563Z,14.70
2018-09-29T06:37:36.345Z,14.90
2018-09-29T06:40:04.245Z,14.90
2018-09-29T06:42:32.913Z,15.00
2018-09-29T06:45:00.706Z,15.10
2018-09-29T06:47:28.629Z,15.20
2018-09-29T06:49:56.410Z,15.40
2018-09-29T06:52:24.344Z,15.60
2018-09-29T06:54:52.224Z,16.00
2018-09-29T06:57:20.097Z,16.30
2018-09-29T06:59:47.998Z,16.70
2018-09-29T07:02:15.896Z,17.10
2018-09-29T07:04:43.803Z,17.40
2018-09-29T07:07:11.624Z,17.70
2018-09-29T07:09:39.611Z,18.10
2018-09-29T07:12:07.427Z,18.40
2018-09-29T07:14:35.306Z,18.70
2018-09-29T07:17:04.793Z,18.90
2018-09-29T07:19:32.744Z,19.20
2018-09-29T07:22:00.533Z,19.50
2018-09-29T07:24:28.390Z,19.70
2018-09-29T07:26:56.153Z,19.90
2018-09-29T07:29:23.917Z,20.20
2018-09-29T07:31:54.005Z,20.40
2018-09-29T07:34:21.822Z,20.70
2018-09-29T07:36:49.650Z,21.00
2018-09-29T07:39:17.500Z,21.10
2018-09-29T07:41:45.406Z,21.50
2018-09-29T07:44:13.266Z,21.80
2018-09-29T07:46:41.083Z,22.00
2018-09-29T07:49:09.023Z,22.10
2018-09-29T07:51:36.789Z,22.00
2018-09-29T07:54:04.573Z,22.00
2018-09-29T07:56:32.456Z,22.00
2018-09-29T07:59:00.325Z,22.10
2018-09-29T08:01:28.450Z,22.30
2018-09-29T08:03:56.357Z,22.50
2018-09-29T08:06:24.466Z,22.80
2018-09-29T08:08:52.417Z,23.10
2018-09-29T08:11:20.280Z,23.30
2018-09-29T08:13:48.186Z,23.60
2018-09-29T08:16:16.053Z,23.90
2018-09-29T08:18:44.033Z,24.20
2018-09-29T08:21:11.884Z,24.40
2018-09-29T08:23:39.921Z,24.50
2018-09-29T08:26:07.779Z,24.70
2018-09-29T08:28:35.786Z,24.80
2018-09-29T08:31:03.913Z,25.00
2018-09-29T08:33:33.067Z,25.20
2018-09-29T08:36:01.226Z,25.10
2018-09-29T08:38:29.186Z,25.00
2018-09-29T08:40:56.973Z,24.80
2018-09-29T08:43:24.745Z,24.60
2018-09-29T08:45:53.369Z,24.50
2018-09-29T08:48:21.186Z,24.60
2018-09-29T08:50:49.045Z,24.70
2018-09-29T08:53:16.888Z,24.90
2018-09-29T08:55:44.589Z,25.20
2018-09-29T08:58:14.523Z,25.40
2018-09-29T09:00:42.585Z,25.70
2018-09-29T09:03:10.502Z,26.00
2018-09-29T09:05:38.525Z,26.20
2018-09-29T09:08:06.356Z,26.40
2018-09-29T09:10:34.181Z,26.70
2018-09-29T09:13:01.998Z,27.00
2018-09-29T09:15:29.785Z,27.30
2018-09-29T09:17:57.587Z,27.50
2018-09-29T09:20:25.372Z,27.70
2018-09-29T09:22:53.283Z,28.00
2018-09-29T09:25:21.152Z,28.10
2018-09-29T09:27:48.915Z,28.20
2018-09-29T09:30:16.746Z,28.30
2018-09-29T09:32:44.856Z,28.50
2018-09-29T09:35:12.770Z,28.60
2018-09-29T09:37:42.122Z,28.70
2018-09-29T09:40:09.955Z,28.70
2018-09-29T09:42:39.535Z,28.70
2018-09-29T09:45:07.605Z,28.80
2018-09-29T09:47:35.572Z,28.80
2018-09-29T09:50:03.530Z,28.90
2018-09-29T09:52:31.469Z,29.10
2018-09-29T09:54:59.299Z,29.30
2018-09-29T09:57:28.364Z,29.60
2018-09-29T09:59:56.317Z,29.90
2018-09-29T10:02:29.775Z,30.20
2018-09-29T10:04:57.576Z,30.50
2018-09-29T10:07:25.422Z,30.90
2018-09-29T10:09:53.265Z,30.80
2018-09-29T10:12:21.255Z,30.90
2018-09-29T10:14:49.032Z,31.10
2018-09-29T10:17:16.884Z,31.10
2018-09-29T10:19:44.816Z,31.10
2018-09-29T10:22:12.685Z,31.40
2018-09-29T10:24:40.537Z,31.50
2018-09-29T10:27:08.402Z,31.60
2018-09-29T10:29:36.269Z,31.90
2018-09-29T10:32:04.106Z,31.90
2018-09-29T10:34:31.977Z,32.00
2018-09-29T10:36:59.769Z,32.00
2018-09-29T10:39:27.592Z,32.10
2018-09-29T10:41:55.377Z,32.10
2018-09-29T10:44:23.261Z,32.10
2018-09-29T10:46:51.072Z,32.20
2018-09-29T10:49:18.925Z,32.20
2018-09-29T10:51:46.977Z,32.40
2018-09-29T10:54:14.969Z,32.30
2018-09-29T10:56:42.838Z,32.30
2018-09-29T10:59:10.810Z,32.50
2018-09-29T11:01:38.617Z,32.50
2018-09-29T11:04:06.452Z,32.50
2018-09-29T11:06:34.269Z,32.30
2018-09-29T11:09:03.023Z,32.40
2018-09-29T11:11:31.527Z,32.60
2018-09-29T11:13:59.495Z,32.70
2018-09-29T11:16:27.430Z,32.90
2018-09-29T11:18:55.353Z,33.20
2018-09-29T11:21:23.218Z,33.40
2018-09-29T11:23:51.038Z,33.60
2018-09-29T11:26:18.933Z,33.80
2018-09-29T11:28:46.849Z,33.90
2018-09-29T11:31:14.685Z,34.30
2018-09-29T11:33:42.685Z,34.50
2018-09-29T11:36:10.661Z,34.60
2018-09-29T11:38:38.597Z,34.60
2018-09-29T11:41:06.565Z,34.50
2018-09-29T11:43:34.507Z,34.70
2018-09-29T11:46:02.541Z,34.70
2018-09-29T11:48:30.557Z,34.80
2018-09-29T11:50:58.473Z,35.20
2018-09-29T11:53:26.342Z,35.20
2018-09-29T11:55:54.215Z,35.00
2018-09-29T11:58:22.054Z,35.00
2018-09-29T12:00:49.928Z,35.10
2018-09-29T12:03:17.741Z,35.20
2018-09-29T12:05:45.805Z,35.40
2018-09-29T12:08:13.722Z,35.60
2018-09-29T12:10:41.584Z,35.70
2018-09-29T12:13:09.409Z,35.90
2018-09-29T12:15:37.202Z,36.30
2018-09-29T12:18:05.034Z,36.50
2018-09-29T12:20:32.852Z,36.70
2018-09-29T12:23:00.709Z,36.90
2018-09-29T12:25:28.508Z,36.80
2018-09-29T12:27:56.314Z,37.00
2018-09-29T12:30:25.368Z,37.20
2018-09-29T12:32:53.133Z,37.40
2018-09-29T12:35:21.117Z,37.40
2018-09-29T12:37:49.145Z,37.60
2018-09-29T12:40:17.071Z,37.60
2018-09-29T12:42:44.966Z,37.70
2018-09-29T12:45:12.749Z,37.60
2018-09-29T12:47:41.276Z,37.20
2018-09-29T12:50:09.204Z,36.70
2018-09-29T12:52:37.336Z,36.40
2018-09-29T12:55:05.299Z,36.60
2018-09-29T12:57:33.122Z,36.60
2018-09-29T13:00:01.025Z,36.40
2018-09-29T13:02:28.998Z,36.20
2018-09-29T13:04:56.953Z,35.70
2018-09-29T13:07:26.112Z,35.20
2018-09-29T13:09:54.046Z,34.60
2018-09-29T13:12:22.242Z,34.10
2018-09-29T13:14:50.393Z,33.90
2018-09-29T13:17:18.529Z,33.70
2018-09-29T13:19:46.433Z,33.30
2018-09-29T13:22:15.649Z,32.70
2018-09-29T13:24:43.816Z,32.40
2018-09-29T13:27:12.178Z,32.00
2018-09-29T13:29:40.086Z,31.90
2018-09-29T13:32:07.941Z,31.90
2018-09-29T13:34:35.964Z,32.00
2018-09-29T13:37:03.811Z,31.70
2018-09-29T13:39:31.844Z,31.50
2018-09-29T13:41:59.811Z,31.10
2018-09-29T13:44:27.728Z,31.00
2018-09-29T13:46:55.546Z,31.00
2018-09-29T13:49:23.550Z,31.10
2018-09-29T13:51:51.616Z,31.30
2018-09-29T13:54:19.392Z,31.40
2018-09-29T13:56:47.553Z,31.40
2018-09-29T13:59:15.961Z,31.50
2018-09-29T14:01:44.049Z,31.90
2018-09-29T14:04:12.309Z,32.30
2018-09-29T14:06:40.792Z,32.50
2018-09-29T14:09:09.821Z,32.70
2018-09-29T14:11:38.161Z,33.00
2018-09-29T14:14:06.897Z,33.20
2018-09-29T14:16:35.048Z,33.40
2018-09-29T14:19:03.273Z,33.40
2018-09-29T14:21:31.337Z,33.50
2018-09-29T14:23:59.179Z,34.00
2018-09-29T14:26:27.088Z,33.70
2018-09-29T14:28:54.993Z,33.40
2018-09-29T14:31:22.897Z,33.10
2018-09-29T14:33:50.750Z,33.00
2018-09-29T14:36:18.697Z,33.30
2018-09-29T14:38:46.593Z,33.00
2018-09-29T14:41:14.648Z,32.50
2018-09-29T14:43:42.617Z,32.20
2018-09-29T14:46:10.550Z,32.00
2018-09-29T14:48:38.452Z,31.50
2018-09-29T14:51:06.562Z,31.40
2018-09-29T14:53:34.417Z,31.00
2018-09-29T14:56:02.291Z,30.60
2018-09-29T14:58:30.176Z,30.50
2018-09-29T15:00:58.001Z,30.40
2018-09-29T15:03:25.977Z,30.20
2018-09-29T15:05:53.800Z,30.20
2018-09-29T15:08:21.639Z,30.20
2018-09-29T15:10:49.659Z,30.20
2018-09-29T15:13:17.486Z,30.20
2018-09-29T15:15:45.669Z,30.10
2018-09-29T15:18:13.686Z,30.00
2018-09-29T15:20:41.486Z,29.50
2018-09-29T15:23:09.362Z,29.00
2018-09-29T15:25:37.138Z,28.70
2018-09-29T15:28:05.243Z,28.30
2018-09-29T15:30:33.061Z,28.10
2018-09-29T15:33:01.011Z,27.80
2018-09-29T15:35:28.938Z,27.50
2018-09-29T15:37:56.740Z,27.20
2018-09-29T15:40:24.537Z,26.90
2018-09-29T15:42:52.449Z,26.40
2018-09-29T15:45:20.511Z,26.20
2018-09-29T15:47:48.329Z,25.80
2018-09-29T15:50:16.233Z,25.40
2018-09-29T15:52:44.148Z,25.10
2018-09-29T15:55:12.162Z,24.70
2018-09-29T15:57:39.920Z,24.40
2018-09-29T16:00:07.848Z,24.20
2018-09-29T16:02:35.746Z,23.90
2018-09-29T16:05:03.600Z,23.60
2018-09-29T16:07:31.376Z,23.30
2018-09-29T16:09:59.278Z,23.10
2018-09-29T16:12:27.088Z,22.90
2018-09-29T16:14:55.415Z,22.80
2018-09-29T16:17:23.182Z,22.70
2018-09-29T16:19:51.162Z,22.40
2018-09-29T16:22:19.172Z,22.20
2018-09-29T16:24:47.208Z,22.10
2018-09-29T16:27:15.237Z,21.90
2018-09-29T16:29:43.058Z,21.70
2018-09-29T16:32:11.826Z,21.40
2018-09-29T16:34:39.863Z,21.40
2018-09-29T16:37:07.952Z,21.20
2018-09-29T16:39:35.779Z,21.00
2018-09-29T16:42:03.581Z,20.90
2018-09-29T16:44:31.370Z,20.60
2018-09-29T16:46:59.361Z,20.50
2018-09-29T16:49:27.281Z,20.30
2018-09-29T16:51:55.128Z,20.20
2018-09-29T16:54:22.934Z,20.00
2018-09-29T16:56:50.726Z,20.00
2018-09-29T16:59:18.552Z,19.80
2018-09-29T17:01:46.389Z,19.70
2018-09-29T17:04:14.471Z,19.50
2018-09-29T17:06:42.462Z,19.40
2018-09-29T17:09:11.775Z,19.30
2018-09-29T17:11:39.630Z,19.20
2018-09-29T17:14:07.742Z,19.10
2018-09-29T17:16:36.332Z,19.00
2018-09-29T17:19:04.354Z,18.90
2018-09-29T17:21:32.436Z,19.00
2018-09-29T17:24:00.430Z,18.90
2018-09-29T17:26:28.260Z,18.70
2018-09-29T17:28:56.432Z,18.60
2018-09-29T17:31:24.559Z,18.50
2018-09-29T17:33:52.520Z,18.40
2018-09-29T17:36:20.577Z,18.30
2018-09-29T17:38:48.613Z,18.30
2018-09-29T17:41:16.570Z,18.10
2018-09-29T17:43:44.461Z,18.10
2018-09-29T17:46:12.254Z,18.00
2018-09-29T17:48:40.066Z,17.90
2018-09-29T17:51:08.109Z,17.80
2018-09-29T17:53:35.958Z,17.80
2018-09-29T17:56:03.818Z,17.70
2018-09-29T17:58:32.321Z,17.60
2018-09-29T18:01:01.152Z,17.60
2018-09-29T18:03:28.941Z,17.60
2018-09-29T18:05:56.844Z,17.60
2018-09-29T18:08:24.760Z,17.50
2018-09-29T18:10:52.822Z,17.50
2018-09-29T18:13:20.789Z,17.50
2018-09-29T18:15:48.993Z,17.40
2018-09-29T18:18:16.846Z,17.40
2018-09-29T18:20:44.704Z,17.30
2018-09-29T18:23:12.619Z,17.30
2018-09-29T18:25:40.737Z,17.30
2018-09-29T18:28:09.277Z,17.30
2018-09-29T18:30:37.058Z,17.30
2018-09-29T18:33:05.126Z,17.30
2018-09-29T18:35:33.116Z,17.30
2018-09-29T18:38:00.924Z,17.20
2018-09-29T18:40:28.737Z,17.10
2018-09-29T18:42:56.735Z,17.10
2018-09-29T18:45:24.653Z,17.10
2018-09-29T18:47:52.473Z,17.10
2018-09-29T18:50:20.333Z,17.10
2018-09-29T18:52:48.253Z,17.00
2018-09-29T18:55:16.416Z,17.10
2018-09-29T18:57:44.465Z,17.10
2018-09-29T19:00:12.492Z,17.10
2018-09-29T19:02:40.306Z,17.10
2018-09-29T19:05:08.176Z,17.10
2018-09-29T19:07:35.990Z,17.10
2018-09-29T19:10:03.944Z,17.10
2018-09-29T19:12:31.770Z,17.10
2018-09-29T19:14:59.537Z,17.10
2018-09-29T19:17:27.326Z,17.10
2018-09-29T19:19:55.187Z,17.00
2018-09-29T19:22:23.288Z,17.00
2018-09-29T19:24:52.824Z,17.00
2018-09-29T19:27:20.676Z,17.00
2018-09-29T19:29:48.525Z,16.90
2018-09-29T19:32:16.321Z,16.80
2018-09-29T19:34:44.111Z,16.80
2018-09-29T19:37:12.194Z,16.80
2018-09-29T19:39:40.166Z,16.80
2018-09-29T19:42:08.035Z,16.80
2018-09-29T19:44:36.079Z,16.80
2018-09-29T19:47:03.923Z,16.80
2018-09-29T19:49:31.774Z,16.80
2018-09-29T19:51:59.845Z,16.80
2018-09-29T19:54:27.918Z,16.80
2018-09-29T19:56:56.160Z,16.80
2018-09-29T19:59:24.857Z,16.90
2018-09-29T20:01:53.132Z,16.90
2018-09-29T20:04:21.012Z,16.80
2018-09-29T20:06:49.095Z,16.80
2018-09-29T20:09:16.981Z,16.80
2018-09-29T20:11:46.482Z,16.80
2018-09-29T20:14:14.796Z,16.70
2018-09-29T20:16:43.119Z,16.70
2018-09-29T20:19:10.976Z,16.60
2018-09-29T20:21:38.757Z,16.60
2018-09-29T20:24:06.659Z,16.60
2018-09-29T20:26:34.621Z,16.50
2018-09-29T20:29:02.489Z,16.50
2018-09-29T20:31:30.656Z,16.50
2018-09-29T20:33:58.637Z,16.50
2018-09-29T20:36:26.849Z,16.50
2018-09-29T20:38:54.865Z,16.50
2018-09-29T20:41:22.830Z,16.40
2018-09-29T20:43:51.359Z,16.40
2018-09-29T20:46:19.655Z,16.40
2018-09-29T20:48:47.707Z,16.30
2018-09-29T20:51:15.716Z,16.30
2018-09-29T20:53:43.559Z,16.30
2018-09-29T20:56:11.373Z,16.30
2018-09-29T20:58:39.310Z,16.20
2018-09-29T21:01:07.255Z,16.10
2018-09-29T21:03:35.348Z,16.10
2018-09-29T21:06:03.333Z,16.00
2018-09-29T21:08:31.217Z,16.00
2018-09-29T21:10:59.415Z,15.90
2018-09-29T21:13:27.413Z,15.80
2018-09-29T21:15:55.351Z,15.70
2018-09-29T21:18:23.236Z,15.70
2018-09-29T21:20:51.369Z,15.60
2018-09-29T21:23:19.458Z,15.60
2018-09-29T21:25:47.407Z,15.50
2018-09-29T21:28:15.655Z,15.50
2018-09-29T21:30:47.317Z,15.40
2018-09-29T21:33:15.297Z,15.40
2018-09-29T21:35:43.085Z,15.40
2018-09-29T21:38:10.901Z,15.40
2018-09-29T21:40:38.725Z,15.40
2018-09-29T21:43:06.541Z,15.30
2018-09-29T21:45:34.401Z,15.30
2018-09-29T21:48:02.222Z,15.30
2018-09-29T21:50:30.155Z,15.20
2018-09-29T21:52:57.977Z,15.20
2018-09-29T21:55:25.769Z,15.20
2018-09-29T21:57:53.762Z,15.20
2018-09-29T22:00:27.306Z,15.10
2018-09-29T22:02:55.260Z,15.00
2018-09-29T22:05:23.404Z,15.00
2018-09-29T22:07:51.425Z,14.90
2018-09-29T22:10:19.342Z,14.90
2018-09-29T22:12:47.539Z,14.80
2018-09-29T22:15:15.541Z,14.80
2018-09-29T22:17:43.528Z,14.70
2018-09-29T22:20:11.465Z,14.70
2018-09-29T22:22:39.323Z,14.50
2018-09-29T22:25:07.317Z,14.60
2018-09-29T22:27:35.197Z,14.50
2018-09-29T22:30:03.166Z,14.50
2018-09-29T22:32:30.971Z,14.50
2018-09-29T22:34:59.560Z,14.40
2018-09-29T22:37:27.522Z,14.40
2018-09-29T22:39:55.337Z,14.30
2018-09-29T22:42:23.356Z,14.10
2018-09-29T22:44:51.105Z,14.20
2018-09-29T22:47:19.000Z,14.10
2018-09-29T22:49:46.904Z,14.10
2018-09-29T22:52:14.843Z,14.10
2018-09-29T22:54:42.853Z,14.00
2018-09-29T22:57:10.609Z,13.90
2018-09-29T22:59:38.409Z,13.90
2018-09-29T23:02:06.738Z,13.90
2018-09-29T23:04:34.697Z,13.80
2018-09-29T23:07:02.714Z,13.80
2018-09-29T23:09:32.908Z,13.70
2018-09-29T23:12:01.325Z,13.70
2018-09-29T23:14:29.170Z,13.70
2018-09-29T23:16:57.013Z,13.60
2018-09-29T23:19:25.700Z,13.60
2018-09-29T23:21:53.621Z,13.50
2018-09-29T23:24:21.446Z,13.50
2018-09-29T23:26:49.352Z,13.40
2018-09-29T23:29:17.129Z,13.50
2018-09-29T23:31:44.993Z,13.50
2018-09-29T23:34:12.781Z,13.50
2018-09-29T23:36:40.664Z,13.40
2018-09-29T23:39:09.205Z,13.50
2018-09-29T23:41:36.977Z,13.40
2018-09-29T23:44:04.932Z,13.30
2018-09-29T23:46:32.753Z,13.30
2018-09-29T23:49:00.769Z,13.20
2018-09-29T23:51:28.632Z,13.20
2018-09-29T23:53:56.424Z,13.10
2018-09-29T23:56:24.241Z,13.10
2018-09-29T23:58:52.046Z,13.00
